Time;durP1;ratioP1;P1;durP2;ratioP2;P2;SDS_P1;SDS_P2;PMS_P1;PMS_P2;Temp;Humidity;BMP_temperature;BMP_pressure;BME280_temperature;BME280_humidity;BME280_pressure;Samples;Min_cycle;Max_cycle;Signal;HPM_P1;HPM_P2
2021/01/12 00:00:20;;;;;;;3.90;2.88;;;20.50;48.90;;;;;;4955286;28;22233;-66
2021/01/12 00:02:45;;;;;;;3.80;2.78;;;20.50;48.90;;;;;;4961899;28;20027;-66
2021/01/12 00:05:12;;;;;;;3.72;2.70;;;20.40;48.90;;;;;;4965656;28;20138;-66
2021/01/12 00:07:37;;;;;;;3.90;2.97;;;20.40;48.90;;;;;;4969789;28;20034;-67
2021/01/12 00:10:05;;;;;;;4.50;3.15;;;20.40;48.90;;;;;;4958435;28;20038;-66
2021/01/12 00:12:31;;;;;;;4.00;3.00;;;20.40;48.90;;;;;;4957053;28;20026;-66
2021/01/12 00:14:57;;;;;;;4.10;2.88;;;20.40;48.90;;;;;;4967383;28;20565;-65
2021/01/12 00:17:22;;;;;;;3.90;2.95;;;20.40;48.90;;;;;;4966613;28;20031;-66
2021/01/12 00:19:49;;;;;;;4.15;2.80;;;20.40;48.90;;;;;;4963394;28;20034;-68
2021/01/12 00:22:14;;;;;;;3.55;2.78;;;20.30;48.80;;;;;;4966796;28;20035;-67
2021/01/12 00:24:44;;;;;;;3.88;2.63;;;20.30;48.80;;;;;;4963422;28;20027;-66
2021/01/12 00:27:13;;;;;;;;;;;20.30;48.90;;;;;;4966510;28;20148;-66
2021/01/12 00:29:39;;;;;;;3.60;2.70;;;20.30;48.90;;;;;;4965525;28;20669;-67
2021/01/12 00:32:05;;;;;;;3.80;2.75;;;20.30;48.90;;;;;;4963503;28;20402;-66
2021/01/12 00:34:35;;;;;;;3.60;2.60;;;20.30;48.90;;;;;;4961664;28;20045;-65
2021/01/12 00:37:00;;;;;;;3.35;2.50;;;20.30;48.90;;;;;;4966263;28;20043;-66
2021/01/12 00:39:26;;;;;;;3.30;2.38;;;20.30;48.90;;;;;;4964776;28;20046;-66
2021/01/12 00:41:54;;;;;;;3.85;2.50;;;20.30;49.00;;;;;;4964689;28;20027;-66
2021/01/12 00:44:21;;;;;;;3.63;2.67;;;20.20;48.90;;;;;;4964856;28;20507;-65
2021/01/12 00:46:47;;;;;;;3.40;2.63;;;20.20;49.00;;;;;;4963814;28;20026;-66
2021/01/12 00:49:13;;;;;;;3.70;2.67;;;20.20;49.00;;;;;;4965440;28;20469;-66
2021/01/12 00:51:40;;;;;;;4.10;2.80;;;20.20;49.00;;;;;;4964454;28;20537;-66
2021/01/12 00:54:13;;;;;;;3.83;2.97;;;20.20;49.00;;;;;;4963437;28;20373;-65
2021/01/12 00:56:39;;;;;;;3.50;2.63;;;20.20;49.00;;;;;;4969012;28;20061;-67
2021/01/12 00:59:05;;;;;;;3.40;2.45;;;20.20;49.00;;;;;;4967930;28;20027;-66
2021/01/12 01:01:31;;;;;;;3.40;2.63;;;20.10;49.00;;;;;;4968738;28;20169;-67
2021/01/12 01:03:58;;;;;;;3.30;2.65;;;20.20;49.00;;;;;;4970366;28;20085;-66
2021/01/12 01:06:24;;;;;;;3.72;2.80;;;20.10;49.00;;;;;;4971203;28;20038;-66
2021/01/12 01:08:50;;;;;;;3.80;2.90;;;20.10;49.00;;;;;;4970828;28;20085;-65
2021/01/12 01:11:16;;;;;;;4.28;2.80;;;20.10;49.00;;;;;;4959632;28;20526;-66
2021/01/12 01:13:42;;;;;;;3.80;2.60;;;20.10;49.00;;;;;;4956992;28;20031;-66
2021/01/12 01:16:08;;;;;;;4.40;2.80;;;20.10;49.10;;;;;;4962194;28;20023;-66
2021/01/12 01:18:34;;;;;;;3.83;2.72;;;20.10;49.10;;;;;;4963110;28;20046;-66
2021/01/12 01:21:00;;;;;;;3.85;2.67;;;20.10;49.10;;;;;;4963051;28;20540;-66
2021/01/12 01:23:26;;;;;;;3.47;2.58;;;20.10;49.10;;;;;;4966707;28;20110;-65
2021/01/12 01:25:52;;;;;;;3.30;2.50;;;20.00;49.10;;;;;;4969625;28;20078;-67
2021/01/12 01:28:20;;;;;;;3.50;2.45;;;20.00;49.10;;;;;;4962103;28;20030;-67
2021/01/12 01:30:46;;;;;;;3.50;2.35;;;20.00;49.10;;;;;;4956463;28;20166;-67
2021/01/12 01:33:12;;;;;;;3.78;2.40;;;20.00;49.10;;;;;;4969643;28;20343;-66
2021/01/12 01:35:38;;;;;;;4.10;2.70;;;20.00;49.10;;;;;;4968065;28;20049;-67
2021/01/12 01:38:03;;;;;;;3.83;2.80;;;20.00;49.10;;;;;;4955893;28;20027;-66
2021/01/12 01:40:30;;;;;;;3.33;2.53;;;20.00;49.10;;;;;;4950953;28;20127;-67
2021/01/12 01:42:56;;;;;;;3.63;2.58;;;20.00;49.10;;;;;;4981427;28;20124;-65
2021/01/12 01:45:24;;;;;;;3.30;2.40;;;19.90;49.10;;;;;;4966950;28;20042;-66
2021/01/12 01:47:50;;;;;;;3.22;2.25;;;19.90;49.10;;;;;;4969752;28;20034;-65
2021/01/12 01:50:17;;;;;;;3.35;2.50;;;19.90;49.10;;;;;;4961422;28;20027;-65
2021/01/12 01:52:54;;;;;;;3.40;2.35;;;19.90;49.10;;;;;;4961076;28;20050;-67
2021/01/12 01:55:20;;;;;;;3.72;2.70;;;19.90;49.10;;;;;;4963674;28;20045;-67
2021/01/12 01:57:46;;;;;;;3.38;2.45;;;19.90;49.10;;;;;;4967845;28;20216;-66
2021/01/12 02:00:16;;;;;;;4.00;2.67;;;19.90;49.10;;;;;;4962673;28;20154;-65
2021/01/12 02:03:01;;;;;;;3.40;2.45;;;19.90;49.10;;;;;;4967843;28;20027;-65
2021/01/12 02:05:28;;;;;;;3.60;2.50;;;19.90;49.10;;;;;;4968433;28;20662;-66
2021/01/12 02:07:59;;;;;;;2.83;2.20;;;19.80;49.10;;;;;;4966933;28;20147;-66
2021/01/12 02:10:25;;;;;;;3.45;2.47;;;19.80;49.10;;;;;;4967581;28;20035;-67
2021/01/12 02:12:58;;;;;;;3.40;2.30;;;19.80;49.10;;;;;;4965754;28;20114;-67
2021/01/12 02:15:26;;;;;;;3.38;2.47;;;19.80;49.20;;;;;;4966337;28;20552;-67
2021/01/12 02:17:53;;;;;;;3.60;2.20;;;19.80;49.60;;;;;;4963454;28;20026;-66
2021/01/12 02:20:22;;;;;;;3.80;2.20;;;19.80;49.20;;;;;;4964992;28;20062;-67
2021/01/12 02:23:07;;;;;;;3.08;2.20;;;19.80;49.20;;;;;;4957327;28;20027;-66
2021/01/12 02:25:37;;;;;;;3.20;2.45;;;19.80;49.20;;;;;;4959340;28;20470;-65
2021/01/12 02:28:07;;;;;;;3.60;2.40;;;19.80;49.20;;;;;;4955114;28;20023;-65
2021/01/12 02:30:34;;;;;;;3.33;2.45;;;19.80;49.20;;;;;;4967052;28;20033;-66
2021/01/12 02:33:00;;;;;;;3.80;2.40;;;19.80;49.20;;;;;;4963790;28;20027;-65
2021/01/12 02:35:28;;;;;;;3.53;2.38;;;19.70;49.20;;;;;;4965792;28;20035;-66
2021/01/12 02:37:55;;;;;;;3.47;2.38;;;19.80;49.30;;;;;;4949211;28;20035;-66
2021/01/12 02:40:22;;;;;;;3.15;2.28;;;19.70;49.20;;;;;;4954687;28;20532;-66
2021/01/12 02:42:47;;;;;;;3.65;2.60;;;19.70;49.30;;;;;;4965117;28;20034;-67
2021/01/12 02:45:13;;;;;;;3.38;2.47;;;19.70;49.30;;;;;;4960669;28;20524;-66
2021/01/12 02:47:39;;;;;;;3.85;2.42;;;19.70;49.30;;;;;;4958828;28;20062;-66
2021/01/12 02:50:07;;;;;;;3.30;2.40;;;19.70;49.30;;;;;;4961276;28;20073;-67
2021/01/12 02:52:32;;;;;;;3.75;2.75;;;19.70;49.30;;;;;;4964138;28;20484;-66
2021/01/12 02:54:58;;;;;;;3.30;2.30;;;19.70;49.30;;;;;;4962313;28;20066;-65
2021/01/12 02:57:23;;;;;;;3.13;2.05;;;19.70;49.90;;;;;;4962973;28;20105;-66
2021/01/12 02:59:49;;;;;;;3.50;2.40;;;19.70;49.40;;;;;;4954848;28;20526;-66
2021/01/12 03:02:15;;;;;;;3.10;2.20;;;19.70;49.40;;;;;;4973004;28;20038;-65
2021/01/12 03:04:40;;;;;;;3.30;2.30;;;19.70;49.40;;;;;;4966656;28;20127;-66
2021/01/12 03:07:06;;;;;;;3.15;2.22;;;19.70;49.50;;;;;;4962706;28;20027;-67
2021/01/12 03:09:31;;;;;;;3.15;2.33;;;19.60;49.40;;;;;;4961867;28;20037;-65
2021/01/12 03:11:57;;;;;;;3.25;2.30;;;19.70;49.50;;;;;;4957449;28;20030;-66
2021/01/12 03:14:23;;;;;;;3.20;2.30;;;19.60;49.40;;;;;;4963714;28;20548;-67
2021/01/12 03:16:51;;;;;;;3.45;2.50;;;19.60;50.00;;;;;;4962169;28;20058;-65
2021/01/12 03:19:17;;;;;;;3.60;2.22;;;19.70;49.50;;;;;;4965795;28;20137;-65
2021/01/12 03:21:43;;;;;;;3.60;2.40;;;19.70;49.50;;;;;;4967046;28;20138;-65
2021/01/12 03:24:09;;;;;;;3.00;2.28;;;19.70;49.50;;;;;;4956629;28;20389;-66
2021/01/12 03:26:35;;;;;;;3.72;2.40;;;19.60;49.50;;;;;;4963106;28;20152;-66
2021/01/12 03:29:00;;;;;;;3.63;2.30;;;19.60;49.50;;;;;;4963289;28;20163;-66
2021/01/12 03:31:26;;;;;;;4.38;2.88;;;19.60;49.60;;;;;;4964851;28;20062;-65
2021/01/12 03:33:52;;;;;;;3.08;2.25;;;19.60;49.60;;;;;;4964772;28;20092;-66
2021/01/12 03:36:18;;;;;;;3.60;2.47;;;19.60;49.60;;;;;;4953276;28;20110;-66
2021/01/12 03:38:43;;;;;;;3.35;2.40;;;19.60;49.60;;;;;;4955237;28;20034;-66
2021/01/12 03:41:09;;;;;;;3.40;2.38;;;19.60;49.60;;;;;;4960584;28;20544;-66
2021/01/12 03:43:34;;;;;;;3.35;2.50;;;19.60;49.60;;;;;;4962396;28;20420;-65
2021/01/12 03:46:00;;;;;;;3.47;2.38;;;19.60;49.60;;;;;;4959945;28;20540;-66
2021/01/12 03:48:26;;;;;;;4.10;2.63;;;19.60;49.60;;;;;;4961130;28;20042;-67
2021/01/12 03:50:51;;;;;;;3.45;2.63;;;19.60;49.60;;;;;;4964066;28;20086;-66
2021/01/12 03:53:17;;;;;;;3.33;2.42;;;19.60;49.70;;;;;;4960917;28;20031;-66
2021/01/12 03:55:42;;;;;;;3.33;2.42;;;19.60;49.70;;;;;;4958668;28;20446;-65
2021/01/12 03:58:08;;;;;;;3.20;2.30;;;19.60;49.60;;;;;;4957386;28;20030;-68
2021/01/12 04:00:34;;;;;;;3.13;2.42;;;19.60;49.70;;;;;;4954201;28;20031;-66
2021/01/12 04:02:59;;;;;;;3.35;2.42;;;19.60;49.70;;;;;;4949306;28;20216;-66
2021/01/12 04:05:28;;;;;;;3.38;2.42;;;19.60;49.70;;;;;;4964808;28;20114;-66
2021/01/12 04:07:54;;;;;;;3.30;2.47;;;19.60;49.70;;;;;;4977053;28;20022;-67
2021/01/12 04:10:20;;;;;;;2.95;2.30;;;19.60;49.70;;;;;;4958888;28;20117;-66
2021/01/12 04:12:45;;;;;;;3.30;2.35;;;19.60;49.70;;;;;;4962184;28;20721;-66
2021/01/12 04:15:12;;;;;;;3.50;2.35;;;19.50;49.70;;;;;;4961078;28;20027;-66
2021/01/12 04:17:37;;;;;;;3.40;2.50;;;19.50;49.70;;;;;;4961942;28;20866;-66
2021/01/12 04:20:04;;;;;;;4.10;2.50;;;19.50;49.70;;;;;;4949355;28;20094;-65
2021/01/12 04:22:30;;;;;;;2.95;2.03;;;19.60;49.70;;;;;;4954171;28;20118;-66
2021/01/12 04:24:55;;;;;;;3.00;2.13;;;19.50;49.70;;;;;;4966021;28;20035;-66
2021/01/12 04:27:21;;;;;;;2.90;2.00;;;19.50;49.80;;;;;;4952871;28;20046;-66
2021/01/12 04:29:46;;;;;;;2.78;2.10;;;19.50;49.80;;;;;;4957627;28;20026;-67
2021/01/12 04:32:12;;;;;;;2.85;2.00;;;19.50;49.80;;;;;;4956507;28;20066;-66
2021/01/12 04:34:37;;;;;;;3.10;2.10;;;19.50;49.80;;;;;;4956502;28;20042;-67
2021/01/12 04:37:03;;;;;;;3.05;2.17;;;19.50;49.80;;;;;;4956914;28;20037;-67
2021/01/12 04:39:29;;;;;;;2.80;2.00;;;19.50;49.80;;;;;;4955040;28;20085;-66
2021/01/12 04:41:55;;;;;;;3.05;2.15;;;19.50;49.80;;;;;;4953758;28;20541;-66
2021/01/12 04:44:20;;;;;;;3.05;2.10;;;19.50;49.80;;;;;;4957729;28;20351;-67
2021/01/12 04:46:46;;;;;;;2.75;2.10;;;19.50;49.80;;;;;;4958356;28;20081;-66
2021/01/12 04:49:11;;;;;;;3.03;2.15;;;19.50;49.90;;;;;;4954575;28;20115;-66
2021/01/12 04:51:37;;;;;;;3.28;2.28;;;19.50;49.80;;;;;;4963999;28;20341;-66
2021/01/12 04:54:03;;;;;;;2.92;2.22;;;19.50;49.80;;;;;;4956057;28;20043;-66
2021/01/12 04:56:29;;;;;;;3.22;2.10;;;19.50;49.80;;;;;;4962159;28;20145;-66
2021/01/12 04:58:55;;;;;;;3.13;2.08;;;19.50;49.80;;;;;;4957418;28;20032;-66
2021/01/12 05:01:22;;;;;;;3.20;2.20;;;19.50;49.80;;;;;;4948901;28;20035;-66
2021/01/12 05:03:52;;;;;;;2.85;2.00;;;19.50;49.80;;;;;;4961888;28;20022;-66
2021/01/12 05:06:23;;;;;;;3.05;2.10;;;19.50;49.90;;;;;;4959660;28;20031;-67
2021/01/12 05:08:56;;;;;;;2.85;2.00;;;19.50;49.90;;;;;;4957622;28;20031;-66
2021/01/12 05:11:42;;;;;;;3.00;2.10;;;19.50;49.80;;;;;;4961006;28;20030;-66
2021/01/12 05:14:13;;;;;;;3.38;2.08;;;19.50;49.90;;;;;;4958503;28;20382;-67
2021/01/12 05:16:45;;;;;;;3.30;2.20;;;19.50;49.80;;;;;;4958145;28;20030;-66
2021/01/12 05:19:18;;;;;;;2.60;1.90;;;19.50;49.90;;;;;;4963132;28;20031;-66
2021/01/12 05:21:46;;;;;;;2.83;2.00;;;19.50;49.90;;;;;;4964608;28;20462;-65
2021/01/12 05:24:12;;;;;;;2.60;1.92;;;19.50;49.90;;;;;;4965113;28;20049;-66
2021/01/12 05:26:38;;;;;;;2.78;2.00;;;19.50;50.00;;;;;;4964882;28;20026;-67
2021/01/12 05:29:05;;;;;;;2.92;2.00;;;19.50;49.90;;;;;;4958574;28;20082;-66
2021/01/12 05:31:31;;;;;;;2.78;2.05;;;19.50;49.90;;;;;;4958183;28;20046;-66
2021/01/12 05:34:04;;;;;;;2.40;1.80;;;19.50;49.90;;;;;;4965076;28;20031;-65
2021/01/12 05:36:30;;;;;;;3.00;2.00;;;19.50;49.90;;;;;;4961966;28;20713;-66
2021/01/12 05:39:02;;;;;;;2.63;1.95;;;19.50;49.90;;;;;;4956689;28;20485;-67
2021/01/12 05:41:29;;;;;;;2.90;1.80;;;19.50;49.90;;;;;;4967724;28;20253;-67
2021/01/12 05:43:56;;;;;;;2.60;1.90;;;19.50;49.90;;;;;;4966965;28;20537;-66
2021/01/12 05:46:22;;;;;;;2.67;1.85;;;19.50;49.90;;;;;;4963315;28;20058;-67
2021/01/12 05:48:48;;;;;;;3.05;1.80;;;19.50;49.80;;;;;;4958226;28;20054;-66
2021/01/12 05:51:15;;;;;;;3.17;2.13;;;19.50;49.90;;;;;;4966107;28;20066;-66
2021/01/12 05:53:47;;;;;;;2.67;1.90;;;19.50;49.80;;;;;;4957595;28;20508;-67
2021/01/12 05:56:20;;;;;;;2.60;1.83;;;19.50;49.90;;;;;;4961594;28;20035;-67
2021/01/12 05:58:50;;;;;;;2.88;1.92;;;19.50;49.80;;;;;;4956182;28;20031;-66
2021/01/12 06:01:51;;;;;;;3.00;2.08;;;19.50;49.90;;;;;;4947782;28;20043;-65
2021/01/12 06:04:17;;;;;;;2.53;1.88;;;19.50;49.90;;;;;;4946708;28;20162;-66
2021/01/12 06:06:44;;;;;;;2.90;2.10;;;19.50;49.90;;;;;;4959086;28;20449;-66
2021/01/12 06:09:12;;;;;;;2.80;1.90;;;19.50;49.80;;;;;;4958691;28;20142;-66
2021/01/12 06:11:39;;;;;;;2.75;1.98;;;19.50;49.90;;;;;;4963644;28;20027;-66
2021/01/12 06:14:09;;;;;;;3.40;2.10;;;19.50;49.90;;;;;;4963269;28;20101;-66
2021/01/12 06:16:36;;;;;;;2.90;2.03;;;19.50;50.40;;;;;;4957881;28;20042;-65
2021/01/12 06:19:06;;;;;;;3.45;2.08;;;19.50;49.90;;;;;;4965334;28;20524;-66
2021/01/12 06:21:35;;;;;;;;;;;19.50;49.90;;;;;;4966363;28;20406;-66
2021/01/12 06:24:09;;;;;;;3.10;2.10;;;19.50;49.90;;;;;;4953012;28;20017;-66
2021/01/12 06:26:40;;;;;;;2.70;2.00;;;19.50;49.90;;;;;;4947557;28;20031;-67
2021/01/12 06:29:09;;;;;;;2.60;1.85;;;19.50;49.90;;;;;;4963543;28;20035;-67
2021/01/12 06:31:56;;;;;;;2.78;1.88;;;19.50;49.90;;;;;;4963075;28;20038;-67
2021/01/12 06:34:22;;;;;;;2.55;1.70;;;19.50;49.90;;;;;;4967469;28;20066;-68
2021/01/12 06:36:58;;;;;;;2.80;1.80;;;19.50;50.00;;;;;;4960850;28;20026;-67
2021/01/12 06:39:46;;;;;;;2.13;1.48;;;19.40;50.50;;;;;;4950633;28;20110;-68
2021/01/12 06:42:14;;;;;;;3.50;2.45;;;19.50;51.70;;;;;;4948718;28;20031;-68
2021/01/12 06:44:40;;;;;;;4.55;2.63;;;19.50;51.50;;;;;;4964460;28;20035;-69
2021/01/12 06:47:08;;;;;;;3.10;2.13;;;19.70;51.00;;;;;;4966772;28;20125;-68
2021/01/12 06:49:35;;;;;;;3.13;2.28;;;19.80;50.60;;;;;;4957104;28;20046;-68
2021/01/12 06:52:07;;;;;;;3.33;2.53;;;19.90;50.30;;;;;;4948714;28;20042;-68
2021/01/12 06:54:36;;;;;;;3.45;2.38;;;20.10;49.90;;;;;;4956066;28;20035;-68
2021/01/12 06:57:21;;;;;;;3.60;2.20;;;20.20;49.70;;;;;;4947837;28;20035;-68
2021/01/12 06:59:56;;;;;;;3.35;2.33;;;20.30;49.30;;;;;;4948325;28;20036;-68
2021/01/12 07:02:29;;;;;;;5.00;2.28;;;20.50;49.10;;;;;;4952135;28;20403;-68
2021/01/12 07:05:10;;;;;;;3.13;2.05;;;20.60;48.70;;;;;;4953761;28;20023;-67
2021/01/12 07:07:49;;;;;;;2.47;1.80;;;20.70;48.50;;;;;;4964409;28;20026;-69
2021/01/12 07:10:20;;;;;;;3.38;1.90;;;20.80;48.20;;;;;;4945388;28;20406;-69
2021/01/12 07:12:46;;;;;;;3.75;2.10;;;20.90;47.90;;;;;;4946528;28;20031;-67
2021/01/12 07:15:18;;;;;;;2.95;2.00;;;21.00;47.60;;;;;;4958777;28;20386;-68
2021/01/12 07:17:46;;;;;;;3.00;1.88;;;21.10;47.40;;;;;;4948022;28;20414;-69
2021/01/12 07:20:19;;;;;;;4.32;2.08;;;21.20;47.30;;;;;;4961197;28;20400;-67
2021/01/12 07:23:01;;;;;;;2.70;1.88;;;21.30;47.10;;;;;;4961492;28;20071;-66
2021/01/12 07:25:39;;;;;;;2.70;1.77;;;21.40;47.00;;;;;;4965173;28;20034;-68
2021/01/12 07:28:15;;;;;;;3.17;2.15;;;21.50;46.80;;;;;;4954415;28;20382;-68
2021/01/12 07:30:46;;;;;;;3.03;2.10;;;21.60;46.60;;;;;;4956089;28;20442;-67
2021/01/12 07:33:30;;;;;;;3.65;2.42;;;21.60;46.40;;;;;;4965545;28;20394;-68
2021/01/12 07:35:57;;;;;;;4.95;4.10;;;21.50;44.00;;;;;;4958586;28;20065;-67
2021/01/12 07:38:28;;;;;;;5.63;4.38;;;21.40;39.00;;;;;;4964490;28;20035;-67
2021/01/12 07:40:56;;;;;;;4.85;4.35;;;21.10;36.80;;;;;;4963404;28;20063;-68
2021/01/12 07:43:23;;;;;;;4.40;3.75;;;21.00;38.50;;;;;;4959419;28;20027;-68
2021/01/12 07:45:51;;;;;;;4.43;3.80;;;21.00;39.70;;;;;;4960941;28;20549;-68
2021/01/12 07:48:16;;;;;;;4.18;3.13;;;20.90;40.40;;;;;;4964590;28;20129;-68
2021/01/12 07:50:43;;;;;;;4.75;3.10;;;20.90;40.80;;;;;;4962720;28;20194;-68
2021/01/12 07:53:09;;;;;;;3.50;2.80;;;20.90;41.10;;;;;;4948749;28;20280;-68
2021/01/12 07:55:42;;;;;;;4.25;3.08;;;20.90;41.30;;;;;;4948345;28;20074;-68
2021/01/12 07:58:09;;;;;;;3.35;2.40;;;20.90;41.60;;;;;;4962579;28;20050;-69
2021/01/12 08:00:35;;;;;;;4.20;2.53;;;20.90;41.80;;;;;;4957115;28;20490;-67
2021/01/12 08:03:01;;;;;;;3.45;2.28;;;21.00;42.10;;;;;;4950157;28;20041;-68
2021/01/12 08:05:27;;;;;;;3.00;2.10;;;20.90;42.20;;;;;;4958626;28;20023;-68
2021/01/12 08:08:04;;;;;;;2.78;1.80;;;20.90;42.30;;;;;;4959548;28;20045;-69
2021/01/12 08:10:40;;;;;;;3.55;2.08;;;20.90;42.40;;;;;;4964161;28;20066;-69
2021/01/12 08:13:13;;;;;;;2.90;1.90;;;20.90;42.60;;;;;;4950989;28;20414;-69
2021/01/12 08:15:43;;;;;;;2.60;1.67;;;20.90;42.80;;;;;;4954766;28;20429;-70
2021/01/12 08:18:20;;;;;;;2.50;1.75;;;20.90;43.00;;;;;;4965755;28;20062;-70
2021/01/12 08:20:47;;;;;;;2.60;1.70;;;20.90;43.10;;;;;;4955975;28;20022;-70
2021/01/12 08:23:19;;;;;;;2.65;1.77;;;20.90;43.10;;;;;;4964300;28;20063;-69
2021/01/12 08:25:45;;;;;;;2.88;1.73;;;20.90;43.30;;;;;;4962034;28;20070;-68
2021/01/12 08:28:11;;;;;;;2.28;1.60;;;20.90;43.30;;;;;;4950946;28;20379;-68
2021/01/12 08:30:39;;;;;;;2.15;1.40;;;20.90;43.40;;;;;;4964993;28;20027;-70
2021/01/12 08:33:26;;;;;;;2.20;1.60;;;20.90;43.60;;;;;;4958598;28;20616;-69
2021/01/12 08:36:07;;;;;;;1.92;1.33;;;20.90;43.70;;;;;;4956522;28;20049;-68
2021/01/12 08:38:33;;;;;;;2.90;1.60;;;20.90;43.80;;;;;;4949716;28;20453;-68
2021/01/12 08:41:03;;;;;;;2.05;1.33;;;20.90;43.80;;;;;;4977519;28;20059;-70
2021/01/12 08:43:30;;;;;;;2.55;1.70;;;20.90;43.80;;;;;;4954150;28;20043;-70
2021/01/12 08:46:03;;;;;;;2.33;1.42;;;21.00;44.00;;;;;;4955075;28;20027;-66
2021/01/12 08:48:29;;;;;;;2.17;1.42;;;20.90;43.90;;;;;;4973424;28;20932;-67
2021/01/12 08:50:55;;;;;;;2.55;1.50;;;20.90;44.00;;;;;;4966135;28;20134;-68
2021/01/12 08:53:30;;;;;;;2.00;1.30;;;21.00;44.10;;;;;;4957551;28;20182;-68
2021/01/12 08:56:04;;;;;;;2.35;1.42;;;20.90;44.20;;;;;;4965090;28;20050;-68
2021/01/12 08:58:30;;;;;;;2.45;1.30;;;20.90;44.20;;;;;;4955898;28;20144;-69
2021/01/12 09:00:56;;;;;;;1.85;1.35;;;21.00;45.10;;;;;;4949996;28;20027;-68
2021/01/12 09:03:22;;;;;;;3.05;1.50;;;21.30;45.20;;;;;;4960768;28;20122;-68
2021/01/12 09:05:51;;;;;;;2.28;1.40;;;21.60;45.10;;;;;;4958286;28;20108;-69
2021/01/12 09:08:19;;;;;;;1.83;1.08;;;21.80;44.90;;;;;;4955746;28;20083;-68
2021/01/12 09:10:45;;;;;;;1.77;1.20;;;22.00;44.40;;;;;;4961298;28;20068;-68
2021/01/12 09:13:11;;;;;;;1.42;1.00;;;22.00;44.40;;;;;;4966379;28;20026;-69
2021/01/12 09:15:39;;;;;;;1.45;1.10;;;21.90;44.70;;;;;;4963739;28;20042;-68
2021/01/12 09:18:07;;;;;;;2.00;1.45;;;21.80;44.90;;;;;;4951803;28;20074;-69
2021/01/12 09:20:38;;;;;;;1.98;1.20;;;21.80;45.20;;;;;;4964091;28;20050;-68
2021/01/12 09:23:15;;;;;;;2.22;1.40;;;21.70;44.50;;;;;;4964106;28;20388;-68
2021/01/12 09:25:52;;;;;;;1.75;1.30;;;21.60;44.20;;;;;;4961972;28;20031;-68
2021/01/12 09:28:23;;;;;;;2.67;1.50;;;21.60;44.20;;;;;;4966009;28;20080;-69
2021/01/12 09:30:51;;;;;;;2.70;1.52;;;21.60;44.20;;;;;;4963112;28;20536;-69
2021/01/12 09:33:24;;;;;;;2.35;1.60;;;21.70;44.00;;;;;;4957382;28;20659;-67
2021/01/12 09:36:10;;;;;;;2.55;1.60;;;21.80;43.70;;;;;;4963045;28;20046;-69
2021/01/12 09:38:47;;;;;;;2.70;1.83;;;22.00;43.60;;;;;;4962451;28;20135;-69
2021/01/12 09:41:13;;;;;;;2.38;1.60;;;22.10;43.30;;;;;;4962141;28;20533;-70
2021/01/12 09:43:41;;;;;;;2.45;1.60;;;22.20;43.20;;;;;;4949631;28;20031;-68
2021/01/12 09:46:08;;;;;;;2.33;1.60;;;22.30;43.10;;;;;;4952623;28;20047;-68
2021/01/12 09:48:34;;;;;;;1.92;1.40;;;22.30;42.80;;;;;;4975166;28;20454;-69
2021/01/12 09:51:00;;;;;;;1.90;1.40;;;22.40;42.70;;;;;;4966262;28;20462;-72
2021/01/12 09:53:26;;;;;;;3.00;1.30;;;22.50;42.60;;;;;;4962377;28;20053;-71
2021/01/12 09:55:52;;;;;;;2.05;1.30;;;22.40;42.50;;;;;;4959068;28;20402;-71
2021/01/12 09:58:17;;;;;;;1.90;1.30;;;22.40;42.70;;;;;;4964248;28;20129;-70
2021/01/12 10:00:43;;;;;;;1.98;1.33;;;22.30;42.80;;;;;;4954720;28;20023;-69
2021/01/12 10:03:09;;;;;;;2.10;1.30;;;22.20;42.90;;;;;;4966118;28;20097;-67
2021/01/12 10:05:38;;;;;;;2.03;1.40;;;22.20;42.90;;;;;;4968479;28;20035;-68
2021/01/12 10:08:04;;;;;;;1.67;1.30;;;22.10;43.00;;;;;;4969624;28;20034;-69
2021/01/12 10:10:30;;;;;;;2.45;1.20;;;22.20;43.40;;;;;;4960269;28;20035;-68
2021/01/12 10:12:56;;;;;;;2.03;1.23;;;22.20;43.00;;;;;;4960828;28;20097;-68
2021/01/12 10:15:21;;;;;;;1.85;1.30;;;22.20;43.00;;;;;;4957167;28;20464;-68
2021/01/12 10:17:47;;;;;;;1.33;1.10;;;22.10;43.00;;;;;;4944218;28;20043;-69
2021/01/12 10:20:12;;;;;;;2.08;1.30;;;22.10;43.10;;;;;;4941264;28;20398;-70
2021/01/12 10:22:38;;;;;;;1.80;1.40;;;22.10;43.20;;;;;;4962001;28;20027;-68
2021/01/12 10:25:04;;;;;;;2.83;1.30;;;22.10;43.50;;;;;;4961927;28;20019;-66
2021/01/12 10:27:36;;;;;;;1.58;1.20;;;22.20;43.20;;;;;;4965698;28;20035;-67
2021/01/12 10:30:03;;;;;;;1.90;1.20;;;22.20;43.20;;;;;;4959541;28;20045;-69
2021/01/12 10:32:29;;;;;;;1.85;1.30;;;22.10;43.10;;;;;;4953678;28;20098;-66
2021/01/12 10:34:54;;;;;;;1.83;1.20;;;22.10;43.30;;;;;;4963033;28;20034;-66
2021/01/12 10:37:20;;;;;;;1.83;1.20;;;22.10;43.30;;;;;;4963808;28;20438;-66
2021/01/12 10:39:46;;;;;;;1.75;1.10;;;22.10;43.40;;;;;;4960841;28;20054;-67
2021/01/12 10:42:11;;;;;;;2.38;1.38;;;22.10;43.50;;;;;;4961129;28;20166;-68
2021/01/12 10:44:37;;;;;;;2.83;1.20;;;22.10;43.60;;;;;;4961090;28;20138;-66
2021/01/12 10:47:03;;;;;;;2.30;1.50;;;22.00;43.50;;;;;;4960017;28;20101;-68
2021/01/12 10:49:28;;;;;;;1.92;1.20;;;22.00;43.50;;;;;;4961740;28;20039;-65
2021/01/12 10:52:02;;;;;;;2.03;1.13;;;22.00;43.50;;;;;;4978695;28;20035;-69
2021/01/12 10:54:28;;;;;;;1.60;1.30;;;21.90;43.40;;;;;;4953417;28;20042;-68
2021/01/12 10:56:55;;;;;;;2.00;1.20;;;21.90;43.50;;;;;;4966768;28;20126;-69
2021/01/12 10:59:21;;;;;;;1.85;1.20;;;22.00;43.60;;;;;;4958747;28;20832;-68
2021/01/12 11:01:57;;;;;;;1.50;1.10;;;21.90;43.60;;;;;;4960752;28;20046;-67
2021/01/12 11:04:23;;;;;;;1.60;1.10;;;21.90;43.70;;;;;;4961575;28;20370;-69
2021/01/12 11:06:51;;;;;;;1.90;1.20;;;21.90;43.70;;;;;;4968061;28;20035;-66
2021/01/12 11:09:20;;;;;;;1.92;1.17;;;21.90;43.70;;;;;;4959939;28;20103;-67
2021/01/12 11:11:48;;;;;;;1.58;1.10;;;21.90;43.80;;;;;;4949853;28;20074;-67
2021/01/12 11:14:15;;;;;;;1.70;1.10;;;21.90;43.90;;;;;;4962944;28;20142;-70
2021/01/12 11:16:40;;;;;;;1.70;1.10;;;21.90;43.90;;;;;;4975666;28;20097;-67
2021/01/12 11:19:10;;;;;;;1.65;1.10;;;21.90;44.00;;;;;;4955126;28;20434;-68
2021/01/12 11:21:46;;;;;;;1.98;1.20;;;21.90;44.00;;;;;;4959335;28;20117;-66
2021/01/12 11:24:17;;;;;;;1.58;1.10;;;21.80;44.00;;;;;;4952274;28;20050;-66
2021/01/12 11:26:43;;;;;;;1.90;1.20;;;21.80;44.00;;;;;;4968215;28;20034;-67
2021/01/12 11:29:11;;;;;;;1.80;1.13;;;21.80;44.00;;;;;;4965295;28;20033;-66
2021/01/12 11:31:37;;;;;;;1.67;1.10;;;21.80;44.00;;;;;;4961055;28;20035;-66
2021/01/12 11:34:03;;;;;;;1.67;1.10;;;21.80;44.10;;;;;;4957704;28;20042;-66
2021/01/12 11:36:40;;;;;;;1.73;1.20;;;21.70;44.10;;;;;;4959101;28;20138;-66
2021/01/12 11:39:14;;;;;;;1.60;1.10;;;21.70;44.10;;;;;;4963658;28;20023;-71
2021/01/12 11:41:51;;;;;;;1.95;1.08;;;21.70;44.20;;;;;;4956682;28;20046;-69
2021/01/12 11:44:19;;;;;;;3.00;1.20;;;21.70;44.30;;;;;;4953076;28;20031;-68
2021/01/12 11:46:45;;;;;;;1.70;1.17;;;21.70;44.40;;;;;;4963211;28;20031;-68
2021/01/12 11:49:11;;;;;;;2.05;1.10;;;21.70;44.30;;;;;;4962850;28;20086;-66
2021/01/12 11:51:41;;;;;;;2.17;1.20;;;21.70;44.50;;;;;;4963183;28;20052;-66
2021/01/12 11:54:08;;;;;;;2.28;1.10;;;21.70;44.50;;;;;;4967410;28;20126;-69
2021/01/12 11:56:35;;;;;;;1.92;1.20;;;21.60;44.50;;;;;;4973555;28;20038;-67
2021/01/12 11:59:02;;;;;;;1.80;1.17;;;21.60;44.60;;;;;;4961245;28;20141;-67
2021/01/12 12:01:27;;;;;;;1.65;1.10;;;21.60;44.80;;;;;;4953794;28;20741;-65
2021/01/12 12:03:53;;;;;;;2.15;1.38;;;21.70;44.90;;;;;;4947946;28;20054;-66
2021/01/12 12:06:19;;;;;;;1.98;1.20;;;21.60;44.90;;;;;;4964676;28;20125;-69
2021/01/12 12:08:44;;;;;;;1.95;1.00;;;21.60;44.90;;;;;;4955898;28;20046;-70
2021/01/12 12:11:10;;;;;;;2.50;1.00;;;21.60;45.00;;;;;;4961854;28;20074;-67
2021/01/12 12:13:42;;;;;;;1.48;1.00;;;21.60;45.00;;;;;;4962037;28;20693;-69
2021/01/12 12:16:14;;;;;;;1.85;1.10;;;21.60;45.00;;;;;;4962656;28;20037;-71
2021/01/12 12:18:43;;;;;;;2.42;1.20;;;21.70;45.00;;;;;;4953133;28;20431;-69
2021/01/12 12:21:15;;;;;;;2.10;1.30;;;21.70;45.00;;;;;;4954422;28;20034;-72
2021/01/12 12:23:43;;;;;;;1.67;1.02;;;21.70;45.00;;;;;;4959256;28;20575;-68
2021/01/12 12:26:14;;;;;;;1.70;1.02;;;21.70;45.00;;;;;;4962448;28;20031;-70
2021/01/12 12:28:40;;;;;;;3.00;1.20;;;21.70;45.00;;;;;;4960325;28;20058;-70
2021/01/12 12:31:07;;;;;;;2.08;1.35;;;21.70;45.00;;;;;;4968660;28;20088;-69
2021/01/12 12:33:33;;;;;;;1.60;1.15;;;21.70;45.00;;;;;;4950909;28;20039;-69
2021/01/12 12:36:06;;;;;;;1.98;1.30;;;21.70;45.00;;;;;;4966769;28;20050;-69
2021/01/12 12:38:35;;;;;;;3.13;1.20;;;21.70;45.00;;;;;;4964416;28;20038;-70
2021/01/12 12:41:05;;;;;;;1.92;1.10;;;21.70;45.00;;;;;;4961880;28;20078;-69
2021/01/12 12:43:31;;;;;;;1.88;1.08;;;21.70;45.00;;;;;;4962134;28;20402;-68
2021/01/12 12:45:57;;;;;;;2.75;1.10;;;21.70;45.00;;;;;;4966331;28;20032;-67
2021/01/12 12:48:22;;;;;;;1.98;1.13;;;21.70;45.00;;;;;;4976902;28;20102;-70
2021/01/12 12:50:48;;;;;;;1.77;1.20;;;21.70;45.00;;;;;;4954670;28;20113;-70
2021/01/12 12:53:14;;;;;;;1.85;1.20;;;21.70;45.00;;;;;;4964148;28;20099;-71